createdAt,value
2023-04-03T00:01:26.689Z,42.62
2023-04-03T00:03:53.322Z,42.32
2023-04-03T00:06:19.905Z,42.11
2023-04-03T00:08:46.475Z,43.12
2023-04-03T00:11:13.039Z,43.57
2023-04-03T00:13:39.599Z,44.35
2023-04-03T00:16:06.163Z,45.03
2023-04-03T00:18:32.856Z,45.32
2023-04-03T00:20:59.507Z,46.68
2023-04-03T00:23:26.065Z,45.97
2023-04-03T00:25:52.635Z,45.78
2023-04-03T00:28:19.194Z,45.44
2023-04-03T00:30:46.027Z,45.51
2023-04-03T00:33:12.635Z,45.48
2023-04-03T00:35:39.320Z,45.72
2023-04-03T00:38:05.954Z,46.71
2023-04-03T00:40:32.506Z,46.29
2023-04-03T00:42:59.077Z,47.03
2023-04-03T00:45:25.703Z,48.20
2023-04-03T00:47:52.413Z,48.12
2023-04-03T00:50:19.027Z,47.52
2023-04-03T00:52:45.590Z,47.20
2023-04-03T00:55:12.184Z,47.59
2023-04-03T00:57:38.752Z,47.11
2023-04-03T01:00:05.541Z,47.31
2023-04-03T01:02:32.156Z,47.35
2023-04-03T01:05:00.052Z,47.81
2023-04-03T01:07:26.706Z,48.24
2023-04-03T01:09:53.286Z,48.44
2023-04-03T01:12:19.812Z,48.75
2023-04-03T01:14:46.416Z,48.69
2023-04-03T01:17:12.970Z,47.79
2023-04-03T01:19:39.529Z,48.19
2023-04-03T01:22:06.234Z,47.11
2023-04-03T01:24:32.821Z,46.79
2023-04-03T01:27:00.411Z,46.25
2023-04-03T01:29:26.988Z,46.81
2023-04-03T01:31:53.707Z,46.92
2023-04-03T01:34:20.377Z,46.66
2023-04-03T01:36:46.934Z,46.93
2023-04-03T01:39:13.607Z,46.41
2023-04-03T01:41:40.200Z,46.89
2023-04-03T01:44:06.757Z,46.38
2023-04-03T01:46:33.318Z,46.48
2023-04-03T01:48:59.958Z,46.13
2023-04-03T01:51:26.555Z,46.22
2023-04-03T01:53:53.127Z,45.72
2023-04-03T01:56:19.672Z,45.77
2023-04-03T01:58:46.274Z,46.35
2023-04-03T02:01:12.903Z,45.28
2023-04-03T02:03:39.532Z,44.67
2023-04-03T02:06:06.149Z,44.93
2023-04-03T02:08:32.724Z,44.49
2023-04-03T02:10:59.330Z,44.87
2023-04-03T02:13:25.874Z,44.66
2023-04-03T02:15:52.417Z,44.13
2023-04-03T02:18:19.011Z,44.52
2023-04-03T02:20:45.551Z,44.13
2023-04-03T02:23:12.182Z,43.61
2023-04-03T02:25:39.113Z,44.01
2023-04-03T02:28:05.845Z,43.68
2023-04-03T02:30:32.870Z,43.67
2023-04-03T02:32:59.546Z,43.49
2023-04-03T02:35:26.210Z,43.16
2023-04-03T02:37:52.803Z,43.30
2023-04-03T02:40:19.383Z,43.04
2023-04-03T02:42:46.015Z,43.24
2023-04-03T02:45:12.599Z,43.23
2023-04-03T02:47:39.257Z,42.63
2023-04-03T02:50:05.860Z,42.48
2023-04-03T02:52:32.451Z,42.44
2023-04-03T02:54:58.999Z,42.38
2023-04-03T02:57:25.689Z,42.04
2023-04-03T02:59:52.333Z,42.27
2023-04-03T03:02:18.901Z,42.42
2023-04-03T03:04:45.459Z,42.50
2023-04-03T03:07:12.055Z,42.06
2023-04-03T03:09:38.625Z,41.56
2023-04-03T03:12:05.245Z,41.69
2023-04-03T03:14:31.883Z,42.09
2023-04-03T03:16:58.418Z,42.20
2023-04-03T03:19:24.946Z,41.57
2023-04-03T03:21:51.525Z,42.03
2023-04-03T03:24:18.101Z,42.18
2023-04-03T03:26:44.673Z,42.33
2023-04-03T03:29:11.318Z,41.93
2023-04-03T03:31:37.927Z,42.00
2023-04-03T03:34:04.543Z,42.15
2023-04-03T03:36:31.142Z,42.28
2023-04-03T03:38:57.721Z,42.11
2023-04-03T03:41:24.285Z,42.82
2023-04-03T03:43:50.855Z,41.98
2023-04-03T03:46:17.411Z,41.88
2023-04-03T03:48:43.985Z,42.02
2023-04-03T03:51:10.549Z,41.73
2023-04-03T03:53:37.129Z,42.27
2023-04-03T03:56:03.952Z,42.54
2023-04-03T03:58:30.547Z,41.99
2023-04-03T04:00:57.130Z,41.95
2023-04-03T04:03:23.761Z,41.42
2023-04-03T04:05:50.402Z,41.55
2023-04-03T04:08:17.042Z,41.83
2023-04-03T04:10:43.602Z,42.22
2023-04-03T04:13:10.184Z,41.76
2023-04-03T04:15:36.981Z,41.46
2023-04-03T04:18:03.779Z,41.59
2023-04-03T04:20:30.331Z,41.52
2023-04-03T04:22:56.886Z,41.64
2023-04-03T04:25:23.442Z,41.83
2023-04-03T04:27:50.130Z,42.00
2023-04-03T04:30:16.689Z,42.14
2023-04-03T04:32:43.276Z,42.03
2023-04-03T04:35:09.880Z,42.13
2023-04-03T04:37:36.457Z,42.62
2023-04-03T04:40:03.019Z,42.67
2023-04-03T04:42:29.595Z,42.81
2023-04-03T04:44:56.144Z,42.92
2023-04-03T04:47:22.716Z,42.90
2023-04-03T04:49:49.305Z,42.70
2023-04-03T04:52:15.888Z,42.79
2023-04-03T04:54:42.451Z,43.03
2023-04-03T04:57:09.066Z,42.75
2023-04-03T04:59:35.729Z,42.61
2023-04-03T05:02:02.348Z,42.26
2023-04-03T05:04:29.008Z,42.39
2023-04-03T05:06:55.638Z,42.71
2023-04-03T05:09:22.184Z,42.57
2023-04-03T05:11:48.753Z,43.03
2023-04-03T05:14:15.388Z,43.15
2023-04-03T05:16:41.966Z,42.99
2023-04-03T05:19:08.570Z,42.86
2023-04-03T05:21:35.105Z,42.85
2023-04-03T05:24:01.655Z,43.05
2023-04-03T05:26:28.235Z,42.64
2023-04-03T05:28:54.838Z,43.03
2023-04-03T05:31:21.466Z,42.66
2023-04-03T05:33:48.037Z,42.73
2023-04-03T05:36:14.712Z,43.00
2023-04-03T05:38:41.386Z,43.07
2023-04-03T05:41:07.966Z,42.94
2023-04-03T05:43:34.567Z,42.61
2023-04-03T05:46:01.281Z,42.56
2023-04-03T05:48:27.910Z,42.17
2023-04-03T05:50:56.947Z,41.91
2023-04-03T05:53:23.750Z,41.54
2023-04-03T05:55:50.340Z,42.06
2023-04-03T05:58:16.911Z,41.29
2023-04-03T06:00:43.478Z,41.99
2023-04-03T06:03:10.170Z,41.54
2023-04-03T06:05:37.064Z,41.20
2023-04-03T06:08:03.897Z,40.92
2023-04-03T06:10:30.448Z,40.25
2023-04-03T06:12:57.073Z,40.35
2023-04-03T06:15:23.693Z,41.23
2023-04-03T06:17:50.363Z,41.25
2023-04-03T06:20:19.265Z,41.46
2023-04-03T06:22:45.838Z,41.13
2023-04-03T06:25:12.397Z,40.68
2023-04-03T06:27:39.292Z,40.46
2023-04-03T06:30:05.935Z,40.89
2023-04-03T06:32:32.573Z,40.79
2023-04-03T06:34:59.339Z,40.96
2023-04-03T06:37:25.905Z,40.52
2023-04-03T06:39:52.507Z,40.28
2023-04-03T06:42:19.045Z,41.50
2023-04-03T06:44:45.644Z,40.79
2023-04-03T06:47:12.186Z,40.52
2023-04-03T06:49:38.788Z,41.67
2023-04-03T06:52:05.410Z,41.51
2023-04-03T06:54:31.956Z,42.01
2023-04-03T06:56:58.578Z,42.04
2023-04-03T06:59:25.161Z,41.60
2023-04-03T07:01:51.913Z,41.59
2023-04-03T07:04:18.579Z,41.61
2023-04-03T07:06:47.629Z,41.00
2023-04-03T07:09:14.346Z,40.91
2023-04-03T07:11:41.019Z,41.37
2023-04-03T07:14:07.576Z,41.60
2023-04-03T07:16:34.220Z,41.35
2023-04-03T07:19:00.838Z,41.07
2023-04-03T07:21:27.445Z,41.02
2023-04-03T07:23:54.058Z,41.23
2023-04-03T07:26:20.603Z,41.59
2023-04-03T07:28:47.325Z,41.28
2023-04-03T07:31:13.946Z,40.49
2023-04-03T07:33:40.540Z,40.59
2023-04-03T07:36:07.173Z,40.56
2023-04-03T07:38:33.824Z,40.20
2023-04-03T07:41:00.534Z,40.18
2023-04-03T07:43:27.088Z,39.84
2023-04-03T07:45:53.703Z,38.89
2023-04-03T07:48:20.269Z,38.87
2023-04-03T07:50:46.820Z,39.08
2023-04-03T07:53:13.402Z,39.52
2023-04-03T07:55:40.138Z,39.75
2023-04-03T07:58:07.088Z,40.00
2023-04-03T08:00:33.673Z,39.39
2023-04-03T08:03:00.332Z,40.26
2023-04-03T08:05:27.004Z,37.88
2023-04-03T08:07:53.604Z,39.03
2023-04-03T08:10:20.151Z,39.56
2023-04-03T08:12:46.749Z,38.88
2023-04-03T08:15:13.336Z,38.92
2023-04-03T08:17:40.035Z,37.86
2023-04-03T08:20:06.617Z,38.48
2023-04-03T08:22:33.204Z,37.18
2023-04-03T08:24:59.905Z,36.47
2023-04-03T08:27:29.581Z,37.13
2023-04-03T08:29:56.173Z,37.12
2023-04-03T08:32:22.731Z,36.92
2023-04-03T08:34:49.340Z,36.62
2023-04-03T08:37:16.134Z,37.44
2023-04-03T08:39:42.765Z,36.97
2023-04-03T08:42:09.318Z,35.02
2023-04-03T08:44:35.929Z,35.72
2023-04-03T08:47:02.513Z,35.83
2023-04-03T08:49:29.240Z,34.65
2023-04-03T08:51:55.814Z,34.83
2023-04-03T08:54:22.398Z,35.17
2023-04-03T08:56:48.982Z,33.54
2023-04-03T08:59:15.555Z,34.21
2023-04-03T09:01:42.278Z,34.93
2023-04-03T09:04:08.952Z,33.75
2023-04-03T09:06:35.617Z,33.39
2023-04-03T09:09:02.179Z,33.67
2023-04-03T09:11:28.727Z,32.99
2023-04-03T09:13:55.291Z,33.30
2023-04-03T09:16:21.902Z,33.89
2023-04-03T09:18:48.514Z,33.26
2023-04-03T09:21:16.110Z,33.51
2023-04-03T09:23:42.686Z,34.55
2023-04-03T09:26:09.266Z,34.12
2023-04-03T09:28:42.871Z,34.05
2023-04-03T09:31:13.732Z,33.90
2023-04-03T09:33:40.321Z,33.84
2023-04-03T09:36:06.898Z,33.93
2023-04-03T09:38:33.486Z,33.12
2023-04-03T09:41:00.027Z,33.53
2023-04-03T09:43:26.631Z,33.88
2023-04-03T09:45:53.193Z,33.66
2023-04-03T09:48:19.835Z,33.20
2023-04-03T09:50:46.534Z,34.13
2023-04-03T09:53:13.149Z,32.24
2023-04-03T09:55:39.701Z,32.56
2023-04-03T09:58:06.313Z,32.94
2023-04-03T10:00:32.865Z,32.52
2023-04-03T10:02:59.481Z,32.54
2023-04-03T10:05:26.286Z,33.51
2023-04-03T10:08:01.673Z,32.91
2023-04-03T10:10:30.378Z,32.68
2023-04-03T10:12:56.944Z,32.18
2023-04-03T10:15:23.623Z,32.82
2023-04-03T10:17:50.227Z,32.30
2023-04-03T10:20:16.897Z,33.11
2023-04-03T10:22:43.788Z,33.36
2023-04-03T10:25:10.423Z,33.70
2023-04-03T10:27:36.975Z,32.92
2023-04-03T10:30:03.730Z,33.23
2023-04-03T10:32:30.339Z,33.10
2023-04-03T10:35:04.647Z,32.37
2023-04-03T10:37:31.854Z,33.61
2023-04-03T10:39:58.407Z,32.74
2023-04-03T10:42:25.004Z,32.53
2023-04-03T10:44:51.560Z,33.09
2023-04-03T10:47:18.185Z,33.93
2023-04-03T10:49:50.064Z,33.02
2023-04-03T10:52:23.963Z,33.33
2023-04-03T10:54:50.617Z,33.23
2023-04-03T10:57:17.275Z,32.81
2023-04-03T10:59:43.858Z,33.07
2023-04-03T11:02:10.450Z,32.87
2023-04-03T11:04:37.016Z,32.22
2023-04-03T11:07:03.916Z,32.02
2023-04-03T11:09:30.626Z,32.84
2023-04-03T11:11:57.218Z,32.08
2023-04-03T11:14:23.809Z,31.61
2023-04-03T11:16:54.332Z,31.20
2023-04-03T11:19:21.231Z,32.54
2023-04-03T11:21:47.892Z,31.71
2023-04-03T11:24:14.445Z,30.19
2023-04-03T11:26:41.000Z,31.15
2023-04-03T11:29:07.608Z,31.72
2023-04-03T11:31:34.216Z,31.15
2023-04-03T11:34:00.782Z,30.19
2023-04-03T11:36:30.096Z,30.87
2023-04-03T11:39:01.103Z,31.38
2023-04-03T11:41:27.944Z,29.78
2023-04-03T11:43:54.582Z,30.86
2023-04-03T11:46:21.208Z,30.07
2023-04-03T11:48:47.815Z,30.25
2023-04-03T11:51:14.539Z,30.15
2023-04-03T11:53:41.129Z,30.87
2023-04-03T11:56:07.740Z,29.24
2023-04-03T11:58:34.305Z,28.30
2023-04-03T12:01:00.839Z,28.50
2023-04-03T12:03:27.657Z,28.61
2023-04-03T12:05:54.324Z,28.71
2023-04-03T12:08:20.930Z,28.32
2023-04-03T12:10:47.516Z,29.12
2023-04-03T12:13:14.137Z,30.97
2023-04-03T12:15:40.776Z,31.02
2023-04-03T12:18:07.503Z,31.29
2023-04-03T12:20:34.195Z,31.69
2023-04-03T12:23:00.773Z,31.24
2023-04-03T12:25:27.362Z,31.27
2023-04-03T12:27:54.044Z,31.06
2023-04-03T12:30:20.661Z,30.22
2023-04-03T12:32:47.298Z,29.81
2023-04-03T12:35:13.892Z,29.95
2023-04-03T12:37:40.489Z,29.43
2023-04-03T12:40:07.094Z,28.54
2023-04-03T12:42:33.742Z,28.76
2023-04-03T12:45:00.491Z,27.21
2023-04-03T12:47:27.209Z,27.61
2023-04-03T12:49:53.777Z,28.13
2023-04-03T12:52:20.360Z,26.63
2023-04-03T12:54:46.937Z,27.81
2023-04-03T12:57:13.591Z,27.90
2023-04-03T12:59:40.235Z,28.50
2023-04-03T13:02:06.867Z,29.27
2023-04-03T13:04:33.428Z,28.42
2023-04-03T13:06:59.988Z,28.03
2023-04-03T13:09:26.550Z,28.59
2023-04-03T13:11:53.104Z,28.53
2023-04-03T13:14:19.667Z,28.00
2023-04-03T13:16:46.252Z,29.00
2023-04-03T13:19:12.810Z,30.19
2023-04-03T13:21:39.454Z,28.87
2023-04-03T13:24:14.960Z,29.54
2023-04-03T13:26:42.186Z,28.93
2023-04-03T13:29:11.042Z,29.48
2023-04-03T13:31:44.460Z,29.28
2023-04-03T13:34:11.051Z,29.46
2023-04-03T13:36:37.791Z,29.20
2023-04-03T13:39:04.381Z,29.31
2023-04-03T13:41:30.975Z,30.05
2023-04-03T13:44:03.356Z,29.34
2023-04-03T13:46:33.266Z,28.05
2023-04-03T13:48:59.866Z,28.63
2023-04-03T13:51:26.517Z,28.86
2023-04-03T13:53:53.946Z,29.10
2023-04-03T13:56:20.525Z,28.63
2023-04-03T13:58:47.095Z,27.98
2023-04-03T14:01:13.762Z,27.98
2023-04-03T14:03:40.332Z,28.19
2023-04-03T14:06:06.971Z,27.94
2023-04-03T14:08:42.182Z,27.20
2023-04-03T14:11:09.873Z,28.79
2023-04-03T14:13:36.438Z,27.48
2023-04-03T14:16:15.113Z,27.44
2023-04-03T14:18:42.378Z,28.21
2023-04-03T14:21:09.300Z,27.87
2023-04-03T14:23:35.847Z,27.17
2023-04-03T14:26:02.432Z,26.92
2023-04-03T14:28:29.003Z,27.80
2023-04-03T14:30:55.673Z,27.98
2023-04-03T14:33:22.297Z,28.17
2023-04-03T14:35:48.877Z,27.97
2023-04-03T14:38:15.462Z,28.09
2023-04-03T14:40:42.042Z,28.04
2023-04-03T14:43:08.609Z,28.29
2023-04-03T14:45:35.166Z,27.53
2023-04-03T14:48:01.824Z,27.95
2023-04-03T14:50:28.428Z,28.03
2023-04-03T14:52:55.022Z,27.62
2023-04-03T14:55:21.613Z,27.33
2023-04-03T14:57:48.201Z,27.67
2023-04-03T15:00:14.729Z,27.37
2023-04-03T15:02:41.526Z,27.73
2023-04-03T15:05:08.527Z,28.17
2023-04-03T15:07:35.091Z,27.76
2023-04-03T15:10:01.675Z,27.64
2023-04-03T15:12:28.223Z,28.07
2023-04-03T15:15:01.122Z,28.50
2023-04-03T15:17:29.518Z,27.61
2023-04-03T15:19:56.124Z,27.85
2023-04-03T15:22:22.888Z,28.97
2023-04-03T15:24:49.445Z,28.40
2023-04-03T15:27:16.025Z,28.78
2023-04-03T15:29:42.579Z,28.29
2023-04-03T15:32:09.256Z,28.09
2023-04-03T15:34:35.861Z,28.83
2023-04-03T15:37:02.409Z,29.25
2023-04-03T15:39:29.022Z,30.57
2023-04-03T15:41:55.615Z,29.90
2023-04-03T15:44:22.177Z,30.11
2023-04-03T15:46:48.776Z,29.72
2023-04-03T15:49:15.364Z,30.05
2023-04-03T15:51:42.005Z,29.54
2023-04-03T15:54:08.586Z,29.51
2023-04-03T15:56:35.104Z,29.18
2023-04-03T15:59:02.020Z,30.63
2023-04-03T16:01:28.644Z,29.77
2023-04-03T16:03:55.243Z,29.21
2023-04-03T16:06:21.821Z,28.75
2023-04-03T16:08:48.794Z,28.77
2023-04-03T16:11:15.407Z,29.85
2023-04-03T16:13:41.993Z,30.28
2023-04-03T16:16:08.605Z,30.80
2023-04-03T16:18:35.921Z,30.95
2023-04-03T16:21:02.605Z,30.84
2023-04-03T16:23:29.225Z,30.70
2023-04-03T16:25:55.825Z,30.47
2023-04-03T16:28:22.412Z,31.24
2023-04-03T16:30:48.996Z,30.24
2023-04-03T16:33:15.574Z,31.61
2023-04-03T16:35:42.184Z,31.78
2023-04-03T16:38:08.744Z,33.35
2023-04-03T16:40:35.329Z,32.10
2023-04-03T16:43:01.899Z,32.36
2023-04-03T16:45:28.448Z,32.37
2023-04-03T16:47:55.042Z,32.15
2023-04-03T16:50:21.732Z,32.83
2023-04-03T16:52:48.317Z,31.59
2023-04-03T16:55:14.897Z,30.96
2023-04-03T16:57:41.439Z,31.65
2023-04-03T17:00:08.033Z,31.60
2023-04-03T17:02:34.676Z,32.05
2023-04-03T17:05:01.565Z,32.17
2023-04-03T17:07:28.118Z,31.71
2023-04-03T17:09:54.821Z,32.88
2023-04-03T17:12:21.403Z,31.72
2023-04-03T17:14:47.997Z,31.73
2023-04-03T17:17:14.554Z,31.13
2023-04-03T17:19:41.101Z,30.91
2023-04-03T17:22:07.692Z,31.95
2023-04-03T17:24:34.267Z,32.33
2023-04-03T17:27:00.820Z,32.06
2023-04-03T17:29:27.374Z,32.51
2023-04-03T17:31:53.955Z,32.25
2023-04-03T17:34:20.550Z,32.36
2023-04-03T17:36:47.137Z,33.54
2023-04-03T17:39:13.725Z,33.09
2023-04-03T17:41:40.302Z,32.60
2023-04-03T17:44:06.874Z,32.78
2023-04-03T17:46:34.820Z,32.61
2023-04-03T17:49:02.028Z,32.61
2023-04-03T17:51:28.655Z,32.31
2023-04-03T17:53:55.219Z,32.54
2023-04-03T17:56:21.870Z,32.41
2023-04-03T17:58:48.442Z,32.06
2023-04-03T18:01:15.139Z,32.24
2023-04-03T18:03:41.792Z,32.96
2023-04-03T18:06:08.454Z,32.95
2023-04-03T18:08:35.084Z,32.79
2023-04-03T18:11:01.673Z,33.21
2023-04-03T18:13:28.388Z,33.40
2023-04-03T18:15:55.078Z,32.93
2023-04-03T18:18:21.715Z,32.35
2023-04-03T18:20:48.309Z,32.13
2023-04-03T18:23:14.881Z,32.54
2023-04-03T18:25:41.470Z,32.83
2023-04-03T18:28:08.067Z,33.54
2023-04-03T18:30:34.627Z,33.50
2023-04-03T18:33:01.243Z,33.63
2023-04-03T18:35:27.878Z,32.63
2023-04-03T18:37:54.427Z,32.76
2023-04-03T18:40:20.992Z,32.73
2023-04-03T18:42:47.584Z,33.42
2023-04-03T18:45:14.139Z,33.27
2023-04-03T18:47:40.829Z,32.64
2023-04-03T18:50:07.428Z,32.33
2023-04-03T18:52:34.049Z,33.18
2023-04-03T18:55:00.602Z,32.85
2023-04-03T18:57:27.224Z,33.01
2023-04-03T18:59:53.836Z,33.15
2023-04-03T19:02:20.391Z,33.00
2023-04-03T19:04:47.883Z,32.80
2023-04-03T19:07:14.670Z,32.80
2023-04-03T19:09:41.216Z,33.03
2023-04-03T19:12:07.823Z,32.85
2023-04-03T19:14:34.395Z,32.95
2023-04-03T19:17:00.963Z,32.98
2023-04-03T19:19:27.538Z,33.44
2023-04-03T19:21:54.091Z,33.67
2023-04-03T19:24:20.650Z,32.79
2023-04-03T19:26:47.381Z,32.75
2023-04-03T19:29:13.950Z,32.58
2023-04-03T19:31:40.569Z,33.70
2023-04-03T19:34:07.136Z,33.44
2023-04-03T19:36:33.844Z,33.68
2023-04-03T19:39:00.468Z,34.08
2023-04-03T19:41:27.017Z,35.06
2023-04-03T19:43:53.578Z,34.15
2023-04-03T19:46:20.166Z,35.08
2023-04-03T19:48:46.761Z,34.29
2023-04-03T19:51:13.358Z,33.68
2023-04-03T19:53:39.929Z,33.60
2023-04-03T19:56:06.467Z,33.58
2023-04-03T19:58:33.092Z,33.36
2023-04-03T20:00:59.737Z,34.00
2023-04-03T20:03:26.295Z,33.18
2023-04-03T20:05:52.986Z,33.39
2023-04-03T20:08:19.580Z,33.15
2023-04-03T20:10:46.172Z,34.03
2023-04-03T20:13:12.761Z,33.37
2023-04-03T20:15:39.326Z,33.62
2023-04-03T20:18:05.972Z,34.11
2023-04-03T20:20:32.571Z,34.33
2023-04-03T20:22:59.123Z,34.16
2023-04-03T20:27:56.044Z,33.96
2023-04-03T20:30:22.688Z,34.86
2023-04-03T20:32:49.386Z,34.75
2023-04-03T20:35:15.976Z,34.61
2023-04-03T20:37:42.523Z,33.72
2023-04-03T20:40:09.087Z,34.66
2023-04-03T20:42:35.645Z,34.71
2023-04-03T20:45:02.230Z,35.06
2023-04-03T20:47:28.849Z,34.08
2023-04-03T20:49:55.421Z,34.15
2023-04-03T20:52:21.979Z,33.95
2023-04-03T20:54:48.616Z,33.57
2023-04-03T20:57:15.209Z,33.95
2023-04-03T20:59:41.760Z,33.22
2023-04-03T21:02:08.329Z,33.30
2023-04-03T21:04:34.868Z,33.26
2023-04-03T21:07:01.427Z,32.94
2023-04-03T21:09:28.055Z,33.71
2023-04-03T21:11:54.587Z,34.08
2023-04-03T21:14:21.145Z,33.32
2023-04-03T21:16:49.093Z,33.16
2023-04-03T21:19:15.738Z,34.04
2023-04-03T21:21:42.412Z,33.35
2023-04-03T21:24:09.112Z,33.93
2023-04-03T21:26:35.694Z,33.29
2023-04-03T21:29:02.260Z,33.10
2023-04-03T21:31:28.904Z,33.74
2023-04-03T21:33:55.463Z,33.52
2023-04-03T21:36:22.042Z,33.79
2023-04-03T21:38:48.634Z,34.18
2023-04-03T21:41:15.186Z,34.02
2023-04-03T21:43:41.971Z,33.99
2023-04-03T21:46:08.569Z,33.91
2023-04-03T21:48:35.161Z,34.29
2023-04-03T21:51:01.741Z,34.76
2023-04-03T21:53:28.311Z,34.63
2023-04-03T21:55:54.905Z,34.43
2023-04-03T21:58:21.485Z,35.08
2023-04-03T22:00:48.127Z,34.62
2023-04-03T22:03:14.741Z,34.54
2023-04-03T22:05:41.317Z,35.31
2023-04-03T22:08:07.930Z,34.77
2023-04-03T22:10:34.471Z,35.42
2023-04-03T22:13:01.054Z,35.46
2023-04-03T22:15:27.597Z,35.71
2023-04-03T22:17:54.187Z,35.33
2023-04-03T22:20:20.762Z,35.94
2023-04-03T22:22:47.313Z,35.78
2023-04-03T22:25:13.883Z,34.95
2023-04-03T22:27:40.526Z,35.69
2023-04-03T22:30:07.100Z,35.48
2023-04-03T22:32:33.671Z,36.19
2023-04-03T22:35:00.579Z,36.47
2023-04-03T22:37:27.139Z,36.24
2023-04-03T22:39:53.711Z,35.95
2023-04-03T22:42:20.268Z,35.49
2023-04-03T22:44:46.850Z,35.94
2023-04-03T22:47:13.452Z,36.55
2023-04-03T22:49:40.034Z,36.35
2023-04-03T22:52:06.657Z,35.92
2023-04-03T22:54:33.219Z,35.66
2023-04-03T22:56:59.885Z,35.44
2023-04-03T22:59:26.562Z,35.19
2023-04-03T23:01:53.152Z,36.17
2023-04-03T23:04:19.704Z,34.79
2023-04-03T23:06:46.313Z,35.67
2023-04-03T23:09:12.881Z,35.11
2023-04-03T23:11:39.423Z,34.68
2023-04-03T23:14:06.018Z,34.94
2023-04-03T23:16:32.612Z,35.09
2023-04-03T23:18:59.217Z,34.80
2023-04-03T23:21:25.799Z,34.57
2023-04-03T23:23:52.405Z,34.11
2023-04-03T23:26:18.978Z,34.93
2023-04-03T23:28:45.589Z,35.09
2023-04-03T23:31:12.196Z,35.63
2023-04-03T23:33:39.096Z,34.99
2023-04-03T23:36:05.791Z,35.41
2023-04-03T23:38:32.386Z,35.11
2023-04-03T23:40:58.993Z,35.51
2023-04-03T23:43:25.560Z,35.53
2023-04-03T23:45:52.136Z,35.52
2023-04-03T23:48:18.697Z,35.36
2023-04-03T23:50:45.251Z,35.20
2023-04-03T23:53:11.799Z,34.84
2023-04-03T23:55:38.365Z,34.92
2023-04-03T23:58:06.996Z,35.11
